VEIMVEGT

Guest
Details From VEIM - IMPHAL
To VEGT - GUWAHATI INTL
Flight Number -
Tags generated
Created
Modified
Stats Distance 152 nm / 282 km
Max Altitude 16,900 ft / 5,151 m
Waypoints 4
Social Downloads 1
Likes 0
Share VATSIM

Download

Looking for another format? Having issues loading an existing format? Contact us
Advertisement - Login to hide

Notes

Basic altitude profile: - Ascent Rate: 2500ft/min - Ascent Speed: 250kts - Cruise Altitude: 35000ft - Cruise Speed: 420kts - Descent Rate: 1500ft/min - Descent Speed: 250kts Options: - Use NATs: yes - Use PACOTS: yes - Use low airways: yes - Use high airways: no

Route

VEIM VENUM W53 GGT VEGT

ID Type Via Altitude Latitude Longitude Leg Dist Tot Dist Heading (true) Name
O VEIM APT - 0 ft / 0 m 24.75995˚ 93.89670˚ - 0 nm - IMPHAL
VENUM FIX - 16,900 ft / 5,151 m 25.20143˚ 92.64479˚ 73 nm 73 nm 292° / 291° -
GGT VOR W53 (AWY-LO) 9,500 ft / 2,896 m 26.10189˚ 91.58574˚ 78 nm 151 nm 314° / 313° GUWAHATI VOR-DME
O VEGT APT - 0 ft / 0 m 26.10609˚ 91.58594˚ 0 nm 152 nm 2° / 2° GUWAHATI INTL

Altitude Profile

Advertisement - Login to hide

VEIM

Details ICAO VEIM (IMF)
Name IMPHAL
Region India
Timezone Asia/Kolkata (UTC+5.5)
Stats Elevation 2,540 ft / 774 m (AMSL)
Location 24.759951° 93.896699°
Runways 1
Magnetic Variation 0.415° W

METAR

VEIM 130900Z 30012KT 5000 HZ FEW020 23/15 Q1014 NOSIG

Decode

TAF

Not found

Departure Runways

ID Width Length Bearing (true) Bearing (mag) Surface Threshold Offset Overrun Length
04 148 ft / 45 m 9,020 ft / 2,749 m 34.48° 34.89° Asphalt 0 ft / 0 m 195 ft / 59 m
22 148 ft / 45 m 9,020 ft / 2,749 m 214.49° 214.90° Asphalt 0 ft / 0 m 200 ft / 61 m

VEGT

Details ICAO VEGT (GAU)
Name GUWAHATI INTL
Region India
Timezone Asia/Kolkata (UTC+5.5)
Stats Elevation 162 ft / 49 m (AMSL)
Location 26.106091° 91.585940°
Runways 1
Magnetic Variation 0.159° W

METAR

VEGT 130900Z 28004KT 2500 HZ FEW020 27/18 Q1012 NOSIG

Decode

TAF

Not found

Destination Runways

ID Width Length Bearing (true) Bearing (mag) Surface Threshold Offset Overrun Length
02 150 ft / 46 m 9,028 ft / 2,752 m 22.66° 22.82° Asphalt 0 ft / 0 m 0 ft / 0 m
20 150 ft / 46 m 9,028 ft / 2,752 m 202.66° 202.82° Asphalt 0 ft / 0 m 0 ft / 0 m

Approach Navaids

Runway Type Ident Frequency Range Bearing (true) Bearing (mag) Slope Elevation
02 Localiser IGHT 110.30 MHz 18 nm / 33 km 21.43° 21.59° - 162 ft / 49 m (AMSL)
02 Glidescope IGHT 110.30 MHz 10 nm / 19 km 22.66° 22.82° 3.25° 162 ft / 49 m (AMSL)
02 DME IGHT 110.30 MHz 18 nm / 33 km - - - 162 ft / 49 m (AMSL)

Popular Alternatives